Deptford, New Jersey
Current Conditions -  °F | °C
As of 5:54 PM on Monday 22 Dec 2014 (Local Time) from KPHL Reporting Station
Light Rain Light Rain  
Wind Chill: 34°   Ceiling: 7500
Heat Index: 41°   Visibility: 6mi
Dew Point: 36°   Wind: 12mph
Humidity: 82%   Direction: 30°NNE
Pressure: 30.19"   Gusts: NA
Location:  39.8266°N, 75.1276°W
Report Text: KPHL 222254Z 03010KT 6SM -RA SCT040 BKN075 OVC110 05/02 A3019 RMK AO2 RAB05 SLP223 P0000 T00500022 $
Loading
Personal Weather Stations






























Interactive Weather Map New forecast layout! Learn more

10-Day Weather Forecast

Advertisements
Track Severe Weather on mobile